sensor_id;sensor_type;location;lat;lon;timestamp;P1;durP1;ratioP1;P2;durP2;ratioP2
48685;SDS011;34485;51.536;3.816;2023-07-30T00:01:54;13.63;;;3.73;;
48685;SDS011;34485;51.536;3.816;2023-07-30T00:04:19;11.70;;;3.53;;
48685;SDS011;34485;51.536;3.816;2023-07-30T00:06:47;14.93;;;3.40;;
48685;SDS011;34485;51.536;3.816;2023-07-30T00:09:14;13.60;;;3.90;;
48685;SDS011;34485;51.536;3.816;2023-07-30T00:11:39;16.33;;;3.83;;
48685;SDS011;34485;51.536;3.816;2023-07-30T00:14:05;16.63;;;4.93;;
48685;SDS011;34485;51.536;3.816;2023-07-30T00:16:31;10.30;;;3.87;;
48685;SDS011;34485;51.536;3.816;2023-07-30T00:18:56;11.70;;;3.35;;
48685;SDS011;34485;51.536;3.816;2023-07-30T00:21:22;15.13;;;2.93;;
48685;SDS011;34485;51.536;3.816;2023-07-30T00:23:48;18.60;;;4.10;;
48685;SDS011;34485;51.536;3.816;2023-07-30T00:26:13;11.73;;;3.23;;
48685;SDS011;34485;51.536;3.816;2023-07-30T00:28:39;14.65;;;4.05;;
48685;SDS011;34485;51.536;3.816;2023-07-30T00:31:05;17.07;;;4.27;;
48685;SDS011;34485;51.536;3.816;2023-07-30T00:33:32;17.10;;;4.50;;
48685;SDS011;34485;51.536;3.816;2023-07-30T00:35:58;11.67;;;3.03;;
48685;SDS011;34485;51.536;3.816;2023-07-30T00:38:24;11.93;;;4.15;;
48685;SDS011;34485;51.536;3.816;2023-07-30T00:40:50;13.95;;;2.97;;
48685;SDS011;34485;51.536;3.816;2023-07-30T00:43:15;12.60;;;4.00;;
48685;SDS011;34485;51.536;3.816;2023-07-30T00:45:43;13.45;;;3.65;;
48685;SDS011;34485;51.536;3.816;2023-07-30T00:48:12;12.05;;;3.05;;
48685;SDS011;34485;51.536;3.816;2023-07-30T00:50:39;23.03;;;4.40;;
48685;SDS011;34485;51.536;3.816;2023-07-30T00:53:05;10.38;;;3.60;;
48685;SDS011;34485;51.536;3.816;2023-07-30T00:55:33;16.25;;;3.88;;
48685;SDS011;34485;51.536;3.816;2023-07-30T00:58:00;13.63;;;3.42;;
48685;SDS011;34485;51.536;3.816;2023-07-30T01:00:26;22.38;;;4.68;;
48685;SDS011;34485;51.536;3.816;2023-07-30T01:02:52;24.10;;;4.87;;
48685;SDS011;34485;51.536;3.816;2023-07-30T01:05:17;20.40;;;4.03;;
48685;SDS011;34485;51.536;3.816;2023-07-30T01:07:43;16.15;;;3.95;;
48685;SDS011;34485;51.536;3.816;2023-07-30T01:10:09;18.43;;;3.60;;
48685;SDS011;34485;51.536;3.816;2023-07-30T01:12:35;21.98;;;4.30;;
48685;SDS011;34485;51.536;3.816;2023-07-30T01:15:02;17.10;;;4.22;;
48685;SDS011;34485;51.536;3.816;2023-07-30T01:17:30;14.63;;;3.40;;
48685;SDS011;34485;51.536;3.816;2023-07-30T01:19:56;20.13;;;3.70;;
48685;SDS011;34485;51.536;3.816;2023-07-30T01:22:22;23.27;;;3.77;;
48685;SDS011;34485;51.536;3.816;2023-07-30T01:24:48;13.32;;;3.85;;
48685;SDS011;34485;51.536;3.816;2023-07-30T01:27:24;21.88;;;4.15;;
48685;SDS011;34485;51.536;3.816;2023-07-30T01:32:28;14.27;;;3.73;;
48685;SDS011;34485;51.536;3.816;2023-07-30T01:34:57;14.68;;;3.92;;
48685;SDS011;34485;51.536;3.816;2023-07-30T01:37:24;20.10;;;4.75;;
48685;SDS011;34485;51.536;3.816;2023-07-30T01:39:51;17.40;;;4.60;;
48685;SDS011;34485;51.536;3.816;2023-07-30T01:42:17;20.92;;;5.20;;
48685;SDS011;34485;51.536;3.816;2023-07-30T01:44:43;21.63;;;4.13;;
48685;SDS011;34485;51.536;3.816;2023-07-30T01:47:09;20.25;;;5.13;;
48685;SDS011;34485;51.536;3.816;2023-07-30T01:49:34;19.90;;;4.17;;
48685;SDS011;34485;51.536;3.816;2023-07-30T01:52:00;12.23;;;3.45;;
48685;SDS011;34485;51.536;3.816;2023-07-30T01:54:25;21.87;;;3.80;;
48685;SDS011;34485;51.536;3.816;2023-07-30T01:56:52;30.13;;;4.25;;
48685;SDS011;34485;51.536;3.816;2023-07-30T01:59:18;25.50;;;4.25;;
48685;SDS011;34485;51.536;3.816;2023-07-30T02:01:44;28.97;;;5.03;;
48685;SDS011;34485;51.536;3.816;2023-07-30T02:04:10;27.83;;;5.00;;
48685;SDS011;34485;51.536;3.816;2023-07-30T02:06:35;10.63;;;4.70;;
48685;SDS011;34485;51.536;3.816;2023-07-30T02:09:01;14.07;;;4.03;;
48685;SDS011;34485;51.536;3.816;2023-07-30T02:11:26;16.83;;;5.03;;
48685;SDS011;34485;51.536;3.816;2023-07-30T02:13:53;26.60;;;5.50;;
48685;SDS011;34485;51.536;3.816;2023-07-30T02:16:18;24.63;;;4.73;;
48685;SDS011;34485;51.536;3.816;2023-07-30T02:18:44;18.93;;;4.70;;
48685;SDS011;34485;51.536;3.816;2023-07-30T02:21:10;24.80;;;5.18;;
48685;SDS011;34485;51.536;3.816;2023-07-30T02:23:35;21.17;;;4.47;;
48685;SDS011;34485;51.536;3.816;2023-07-30T02:26:01;8.48;;;3.33;;
48685;SDS011;34485;51.536;3.816;2023-07-30T02:28:26;25.93;;;4.30;;
48685;SDS011;34485;51.536;3.816;2023-07-30T02:30:52;24.67;;;4.10;;
48685;SDS011;34485;51.536;3.816;2023-07-30T02:33:18;20.35;;;5.07;;
48685;SDS011;34485;51.536;3.816;2023-07-30T02:35:43;20.20;;;4.40;;
48685;SDS011;34485;51.536;3.816;2023-07-30T02:38:09;24.48;;;4.32;;
48685;SDS011;34485;51.536;3.816;2023-07-30T02:40:35;25.80;;;5.03;;
48685;SDS011;34485;51.536;3.816;2023-07-30T02:43:00;23.13;;;4.55;;
48685;SDS011;34485;51.536;3.816;2023-07-30T02:45:26;18.40;;;4.77;;
48685;SDS011;34485;51.536;3.816;2023-07-30T02:47:52;31.33;;;6.30;;
48685;SDS011;34485;51.536;3.816;2023-07-30T02:50:17;18.83;;;4.47;;
48685;SDS011;34485;51.536;3.816;2023-07-30T02:52:43;22.63;;;4.65;;
48685;SDS011;34485;51.536;3.816;2023-07-30T02:55:09;24.10;;;4.53;;
48685;SDS011;34485;51.536;3.816;2023-07-30T02:57:34;23.80;;;5.37;;
48685;SDS011;34485;51.536;3.816;2023-07-30T03:00:00;26.58;;;4.32;;
48685;SDS011;34485;51.536;3.816;2023-07-30T03:02:25;32.37;;;5.10;;
48685;SDS011;34485;51.536;3.816;2023-07-30T03:04:51;21.08;;;4.68;;
48685;SDS011;34485;51.536;3.816;2023-07-30T03:07:17;22.07;;;4.97;;
48685;SDS011;34485;51.536;3.816;2023-07-30T03:09:43;25.27;;;4.78;;
48685;SDS011;34485;51.536;3.816;2023-07-30T03:12:09;19.40;;;4.53;;
48685;SDS011;34485;51.536;3.816;2023-07-30T03:14:34;29.13;;;5.00;;
48685;SDS011;34485;51.536;3.816;2023-07-30T03:17:00;18.60;;;4.40;;
48685;SDS011;34485;51.536;3.816;2023-07-30T03:19:26;19.98;;;4.53;;
48685;SDS011;34485;51.536;3.816;2023-07-30T03:21:51;24.73;;;5.37;;
48685;SDS011;34485;51.536;3.816;2023-07-30T03:24:17;23.93;;;5.27;;
48685;SDS011;34485;51.536;3.816;2023-07-30T03:26:42;19.30;;;4.40;;
48685;SDS011;34485;51.536;3.816;2023-07-30T03:29:08;21.17;;;3.87;;
48685;SDS011;34485;51.536;3.816;2023-07-30T03:31:33;22.17;;;4.73;;
48685;SDS011;34485;51.536;3.816;2023-07-30T03:33:59;29.75;;;5.07;;
48685;SDS011;34485;51.536;3.816;2023-07-30T03:36:24;20.07;;;4.17;;
48685;SDS011;34485;51.536;3.816;2023-07-30T03:38:50;19.47;;;4.23;;
48685;SDS011;34485;51.536;3.816;2023-07-30T03:41:16;22.25;;;5.45;;
48685;SDS011;34485;51.536;3.816;2023-07-30T03:43:41;16.43;;;4.87;;
48685;SDS011;34485;51.536;3.816;2023-07-30T03:46:07;23.13;;;4.50;;
48685;SDS011;34485;51.536;3.816;2023-07-30T03:48:32;14.90;;;4.53;;
48685;SDS011;34485;51.536;3.816;2023-07-30T03:50:58;21.70;;;5.07;;
48685;SDS011;34485;51.536;3.816;2023-07-30T03:53:23;29.08;;;4.28;;
48685;SDS011;34485;51.536;3.816;2023-07-30T03:55:49;21.53;;;4.37;;
48685;SDS011;34485;51.536;3.816;2023-07-30T03:58:15;25.63;;;4.57;;
48685;SDS011;34485;51.536;3.816;2023-07-30T04:00:40;16.73;;;4.03;;
48685;SDS011;34485;51.536;3.816;2023-07-30T04:03:06;17.80;;;4.10;;
48685;SDS011;34485;51.536;3.816;2023-07-30T04:05:32;24.77;;;5.50;;
48685;SDS011;34485;51.536;3.816;2023-07-30T04:07:57;25.00;;;5.77;;
48685;SDS011;34485;51.536;3.816;2023-07-30T04:10:23;23.77;;;4.55;;
48685;SDS011;34485;51.536;3.816;2023-07-30T04:12:49;20.47;;;5.07;;
48685;SDS011;34485;51.536;3.816;2023-07-30T04:15:15;13.45;;;4.15;;
48685;SDS011;34485;51.536;3.816;2023-07-30T04:17:41;26.95;;;4.18;;
48685;SDS011;34485;51.536;3.816;2023-07-30T04:20:07;33.40;;;4.83;;
48685;SDS011;34485;51.536;3.816;2023-07-30T04:22:34;21.83;;;5.05;;
48685;SDS011;34485;51.536;3.816;2023-07-30T04:25:00;19.73;;;4.07;;
48685;SDS011;34485;51.536;3.816;2023-07-30T04:27:26;16.57;;;3.83;;
48685;SDS011;34485;51.536;3.816;2023-07-30T04:29:51;14.82;;;4.32;;
48685;SDS011;34485;51.536;3.816;2023-07-30T04:32:17;21.53;;;4.47;;
48685;SDS011;34485;51.536;3.816;2023-07-30T04:34:43;17.50;;;4.28;;
48685;SDS011;34485;51.536;3.816;2023-07-30T04:37:08;27.30;;;4.70;;
48685;SDS011;34485;51.536;3.816;2023-07-30T04:39:34;23.00;;;6.07;;
48685;SDS011;34485;51.536;3.816;2023-07-30T04:42:01;23.27;;;4.27;;
48685;SDS011;34485;51.536;3.816;2023-07-30T04:44:27;27.63;;;5.60;;
48685;SDS011;34485;51.536;3.816;2023-07-30T04:46:52;23.05;;;4.30;;
48685;SDS011;34485;51.536;3.816;2023-07-30T04:49:18;23.20;;;4.90;;
48685;SDS011;34485;51.536;3.816;2023-07-30T04:51:44;19.77;;;3.90;;
48685;SDS011;34485;51.536;3.816;2023-07-30T04:54:09;24.02;;;4.68;;
48685;SDS011;34485;51.536;3.816;2023-07-30T04:56:35;13.50;;;4.40;;
48685;SDS011;34485;51.536;3.816;2023-07-30T04:59:01;16.55;;;4.57;;
48685;SDS011;34485;51.536;3.816;2023-07-30T05:01:27;21.50;;;5.35;;
48685;SDS011;34485;51.536;3.816;2023-07-30T05:03:53;23.50;;;4.63;;
48685;SDS011;34485;51.536;3.816;2023-07-30T05:06:19;21.15;;;5.20;;
48685;SDS011;34485;51.536;3.816;2023-07-30T05:08:44;11.57;;;3.90;;
48685;SDS011;34485;51.536;3.816;2023-07-30T05:11:10;30.80;;;4.97;;
48685;SDS011;34485;51.536;3.816;2023-07-30T05:13:35;29.40;;;5.20;;
48685;SDS011;34485;51.536;3.816;2023-07-30T05:16:01;28.40;;;5.77;;
48685;SDS011;34485;51.536;3.816;2023-07-30T05:18:27;19.25;;;4.35;;
48685;SDS011;34485;51.536;3.816;2023-07-30T05:20:53;25.75;;;5.07;;
48685;SDS011;34485;51.536;3.816;2023-07-30T05:23:19;29.20;;;4.90;;
48685;SDS011;34485;51.536;3.816;2023-07-30T05:25:45;17.40;;;4.30;;
48685;SDS011;34485;51.536;3.816;2023-07-30T05:28:11;19.57;;;4.83;;
48685;SDS011;34485;51.536;3.816;2023-07-30T05:30:37;21.70;;;4.03;;
48685;SDS011;34485;51.536;3.816;2023-07-30T05:33:03;13.80;;;3.80;;
48685;SDS011;34485;51.536;3.816;2023-07-30T05:35:28;25.25;;;4.90;;
48685;SDS011;34485;51.536;3.816;2023-07-30T05:37:54;25.40;;;4.77;;
48685;SDS011;34485;51.536;3.816;2023-07-30T05:40:20;23.88;;;4.57;;
48685;SDS011;34485;51.536;3.816;2023-07-30T05:42:46;19.57;;;4.10;;
48685;SDS011;34485;51.536;3.816;2023-07-30T05:45:11;23.58;;;3.92;;
48685;SDS011;34485;51.536;3.816;2023-07-30T05:47:37;31.43;;;4.43;;
48685;SDS011;34485;51.536;3.816;2023-07-30T05:50:03;18.58;;;4.10;;
48685;SDS011;34485;51.536;3.816;2023-07-30T05:52:29;16.30;;;4.25;;
48685;SDS011;34485;51.536;3.816;2023-07-30T05:54:54;16.93;;;4.30;;
48685;SDS011;34485;51.536;3.816;2023-07-30T05:57:20;21.27;;;4.00;;
48685;SDS011;34485;51.536;3.816;2023-07-30T05:59:45;22.95;;;4.55;;
48685;SDS011;34485;51.536;3.816;2023-07-30T06:02:11;22.35;;;4.15;;
48685;SDS011;34485;51.536;3.816;2023-07-30T06:04:37;18.63;;;4.27;;
48685;SDS011;34485;51.536;3.816;2023-07-30T06:07:03;24.30;;;4.47;;
48685;SDS011;34485;51.536;3.816;2023-07-30T06:09:29;18.73;;;4.53;;
48685;SDS011;34485;51.536;3.816;2023-07-30T06:11:57;17.95;;;3.85;;
48685;SDS011;34485;51.536;3.816;2023-07-30T06:14:23;22.27;;;5.05;;
48685;SDS011;34485;51.536;3.816;2023-07-30T06:16:50;26.63;;;6.10;;
48685;SDS011;34485;51.536;3.816;2023-07-30T06:19:19;21.50;;;5.22;;
48685;SDS011;34485;51.536;3.816;2023-07-30T06:21:45;30.67;;;6.05;;
48685;SDS011;34485;51.536;3.816;2023-07-30T06:24:10;19.17;;;5.03;;
48685;SDS011;34485;51.536;3.816;2023-07-30T06:26:36;21.42;;;5.03;;
48685;SDS011;34485;51.536;3.816;2023-07-30T06:29:02;20.50;;;5.60;;
48685;SDS011;34485;51.536;3.816;2023-07-30T06:31:27;29.25;;;4.93;;
48685;SDS011;34485;51.536;3.816;2023-07-30T06:33:53;17.47;;;4.67;;
48685;SDS011;34485;51.536;3.816;2023-07-30T06:36:19;24.02;;;4.47;;
48685;SDS011;34485;51.536;3.816;2023-07-30T06:38:44;28.40;;;4.37;;
48685;SDS011;34485;51.536;3.816;2023-07-30T06:41:10;17.37;;;3.57;;
48685;SDS011;34485;51.536;3.816;2023-07-30T06:43:35;22.80;;;4.47;;
48685;SDS011;34485;51.536;3.816;2023-07-30T06:46:01;20.47;;;4.07;;
48685;SDS011;34485;51.536;3.816;2023-07-30T06:48:27;24.83;;;5.35;;
48685;SDS011;34485;51.536;3.816;2023-07-30T06:50:52;23.97;;;5.57;;
48685;SDS011;34485;51.536;3.816;2023-07-30T06:53:18;18.63;;;5.15;;
48685;SDS011;34485;51.536;3.816;2023-07-30T06:55:44;20.70;;;4.97;;
48685;SDS011;34485;51.536;3.816;2023-07-30T06:58:10;24.88;;;4.55;;
48685;SDS011;34485;51.536;3.816;2023-07-30T07:00:36;23.15;;;5.95;;
48685;SDS011;34485;51.536;3.816;2023-07-30T07:03:01;18.37;;;4.27;;
48685;SDS011;34485;51.536;3.816;2023-07-30T07:05:27;16.00;;;4.15;;
48685;SDS011;34485;51.536;3.816;2023-07-30T07:07:53;18.87;;;4.33;;
48685;SDS011;34485;51.536;3.816;2023-07-30T07:10:18;12.43;;;4.27;;
48685;SDS011;34485;51.536;3.816;2023-07-30T07:12:44;19.10;;;4.18;;
48685;SDS011;34485;51.536;3.816;2023-07-30T07:15:09;15.10;;;3.37;;
48685;SDS011;34485;51.536;3.816;2023-07-30T07:17:35;16.58;;;4.05;;
48685;SDS011;34485;51.536;3.816;2023-07-30T07:20:01;15.43;;;4.27;;
48685;SDS011;34485;51.536;3.816;2023-07-30T07:22:28;20.13;;;4.20;;
48685;SDS011;34485;51.536;3.816;2023-07-30T07:24:54;16.67;;;4.20;;
48685;SDS011;34485;51.536;3.816;2023-07-30T07:27:20;19.67;;;4.05;;
48685;SDS011;34485;51.536;3.816;2023-07-30T07:29:45;18.60;;;4.10;;
48685;SDS011;34485;51.536;3.816;2023-07-30T07:32:11;21.45;;;3.95;;
48685;SDS011;34485;51.536;3.816;2023-07-30T07:34:37;15.90;;;4.20;;
48685;SDS011;34485;51.536;3.816;2023-07-30T07:37:02;18.77;;;4.15;;
48685;SDS011;34485;51.536;3.816;2023-07-30T07:39:28;19.93;;;4.50;;
48685;SDS011;34485;51.536;3.816;2023-07-30T07:41:55;17.60;;;3.85;;
48685;SDS011;34485;51.536;3.816;2023-07-30T07:44:20;15.07;;;3.35;;
48685;SDS011;34485;51.536;3.816;2023-07-30T07:46:47;17.20;;;3.63;;
48685;SDS011;34485;51.536;3.816;2023-07-30T07:49:13;18.77;;;4.65;;
48685;SDS011;34485;51.536;3.816;2023-07-30T07:51:38;20.73;;;4.53;;
48685;SDS011;34485;51.536;3.816;2023-07-30T07:54:04;13.60;;;3.80;;
48685;SDS011;34485;51.536;3.816;2023-07-30T07:56:30;18.50;;;3.10;;
48685;SDS011;34485;51.536;3.816;2023-07-30T07:58:56;16.00;;;3.72;;
48685;SDS011;34485;51.536;3.816;2023-07-30T08:01:22;20.73;;;4.88;;
48685;SDS011;34485;51.536;3.816;2023-07-30T08:03:48;14.50;;;4.27;;
48685;SDS011;34485;51.536;3.816;2023-07-30T08:06:13;21.90;;;4.78;;
48685;SDS011;34485;51.536;3.816;2023-07-30T08:08:39;16.90;;;3.80;;
48685;SDS011;34485;51.536;3.816;2023-07-30T08:11:08;13.57;;;2.47;;
48685;SDS011;34485;51.536;3.816;2023-07-30T08:13:34;8.82;;;3.53;;
48685;SDS011;34485;51.536;3.816;2023-07-30T08:16:00;12.18;;;3.20;;
48685;SDS011;34485;51.536;3.816;2023-07-30T08:18:27;9.25;;;2.33;;
48685;SDS011;34485;51.536;3.816;2023-07-30T08:20:52;16.95;;;2.78;;
48685;SDS011;34485;51.536;3.816;2023-07-30T08:23:18;11.00;;;3.03;;
48685;SDS011;34485;51.536;3.816;2023-07-30T08:25:44;12.45;;;2.97;;
48685;SDS011;34485;51.536;3.816;2023-07-30T08:28:10;13.77;;;2.70;;
48685;SDS011;34485;51.536;3.816;2023-07-30T08:30:36;5.10;;;2.60;;
48685;SDS011;34485;51.536;3.816;2023-07-30T08:33:01;7.33;;;2.33;;
48685;SDS011;34485;51.536;3.816;2023-07-30T08:35:28;7.15;;;2.20;;
48685;SDS011;34485;51.536;3.816;2023-07-30T08:37:54;7.05;;;2.40;;
48685;SDS011;34485;51.536;3.816;2023-07-30T08:40:23;7.03;;;2.38;;
48685;SDS011;34485;51.536;3.816;2023-07-30T08:42:52;7.30;;;2.90;;
48685;SDS011;34485;51.536;3.816;2023-07-30T08:45:18;10.77;;;2.80;;
48685;SDS011;34485;51.536;3.816;2023-07-30T08:47:44;8.20;;;2.38;;
48685;SDS011;34485;51.536;3.816;2023-07-30T08:50:10;8.38;;;2.83;;
48685;SDS011;34485;51.536;3.816;2023-07-30T08:52:36;5.90;;;2.20;;
48685;SDS011;34485;51.536;3.816;2023-07-30T08:55:03;5.38;;;2.42;;
48685;SDS011;34485;51.536;3.816;2023-07-30T08:57:29;5.80;;;2.30;;
48685;SDS011;34485;51.536;3.816;2023-07-30T09:02:48;7.00;;;2.40;;
48685;SDS011;34485;51.536;3.816;2023-07-30T09:05:18;8.55;;;2.60;;
48685;SDS011;34485;51.536;3.816;2023-07-30T09:07:45;7.55;;;2.53;;
48685;SDS011;34485;51.536;3.816;2023-07-30T09:10:11;7.30;;;2.50;;
48685;SDS011;34485;51.536;3.816;2023-07-30T09:12:37;8.17;;;2.50;;
48685;SDS011;34485;51.536;3.816;2023-07-30T09:15:03;5.05;;;2.80;;
48685;SDS011;34485;51.536;3.816;2023-07-30T09:17:30;9.10;;;2.33;;
48685;SDS011;34485;51.536;3.816;2023-07-30T09:19:55;5.07;;;2.20;;
48685;SDS011;34485;51.536;3.816;2023-07-30T09:22:24;5.90;;;2.50;;
48685;SDS011;34485;51.536;3.816;2023-07-30T09:24:50;5.15;;;2.80;;
48685;SDS011;34485;51.536;3.816;2023-07-30T09:27:19;7.40;;;2.47;;
48685;SDS011;34485;51.536;3.816;2023-07-30T09:29:51;7.20;;;2.90;;
48685;SDS011;34485;51.536;3.816;2023-07-30T09:32:18;6.05;;;2.70;;
48685;SDS011;34485;51.536;3.816;2023-07-30T09:34:44;4.33;;;2.10;;
48685;SDS011;34485;51.536;3.816;2023-07-30T09:37:10;5.60;;;2.40;;
48685;SDS011;34485;51.536;3.816;2023-07-30T09:39:37;5.05;;;2.50;;
48685;SDS011;34485;51.536;3.816;2023-07-30T09:42:03;7.53;;;2.70;;
48685;SDS011;34485;51.536;3.816;2023-07-30T09:44:31;9.98;;;2.95;;
48685;SDS011;34485;51.536;3.816;2023-07-30T09:46:58;9.00;;;2.83;;
48685;SDS011;34485;51.536;3.816;2023-07-30T09:49:31;6.07;;;2.60;;
48685;SDS011;34485;51.536;3.816;2023-07-30T09:51:57;5.32;;;2.35;;
48685;SDS011;34485;51.536;3.816;2023-07-30T09:54:23;4.80;;;2.58;;
48685;SDS011;34485;51.536;3.816;2023-07-30T09:56:49;7.10;;;2.37;;
48685;SDS011;34485;51.536;3.816;2023-07-30T09:59:14;6.03;;;2.78;;
48685;SDS011;34485;51.536;3.816;2023-07-30T10:01:44;4.97;;;2.40;;
48685;SDS011;34485;51.536;3.816;2023-07-30T10:04:13;5.50;;;2.28;;
48685;SDS011;34485;51.536;3.816;2023-07-30T10:06:42;5.13;;;2.57;;
48685;SDS011;34485;51.536;3.816;2023-07-30T10:09:11;4.50;;;2.33;;
48685;SDS011;34485;51.536;3.816;2023-07-30T10:11:39;5.90;;;2.30;;
48685;SDS011;34485;51.536;3.816;2023-07-30T10:14:06;4.10;;;2.30;;
48685;SDS011;34485;51.536;3.816;2023-07-30T10:16:32;8.10;;;3.03;;
48685;SDS011;34485;51.536;3.816;2023-07-30T10:18:58;10.27;;;2.90;;
48685;SDS011;34485;51.536;3.816;2023-07-30T10:21:27;4.07;;;2.25;;
48685;SDS011;34485;51.536;3.816;2023-07-30T10:26:26;10.55;;;2.50;;
48685;SDS011;34485;51.536;3.816;2023-07-30T10:29:13;4.70;;;2.50;;
48685;SDS011;34485;51.536;3.816;2023-07-30T10:31:39;4.97;;;2.63;;
48685;SDS011;34485;51.536;3.816;2023-07-30T10:34:12;8.10;;;2.47;;
48685;SDS011;34485;51.536;3.816;2023-07-30T10:36:42;4.30;;;1.80;;
48685;SDS011;34485;51.536;3.816;2023-07-30T10:39:13;4.40;;;1.90;;
48685;SDS011;34485;51.536;3.816;2023-07-30T10:41:39;6.65;;;2.08;;
48685;SDS011;34485;51.536;3.816;2023-07-30T10:44:04;11.43;;;2.50;;
48685;SDS011;34485;51.536;3.816;2023-07-30T10:46:30;7.82;;;2.65;;
48685;SDS011;34485;51.536;3.816;2023-07-30T10:48:57;3.95;;;2.33;;
48685;SDS011;34485;51.536;3.816;2023-07-30T10:51:22;6.53;;;2.30;;
48685;SDS011;34485;51.536;3.816;2023-07-30T10:53:49;6.80;;;2.13;;
48685;SDS011;34485;51.536;3.816;2023-07-30T10:56:16;4.63;;;1.75;;
48685;SDS011;34485;51.536;3.816;2023-07-30T10:58:43;4.73;;;2.27;;
48685;SDS011;34485;51.536;3.816;2023-07-30T11:01:15;5.88;;;2.22;;
48685;SDS011;34485;51.536;3.816;2023-07-30T11:03:41;7.30;;;2.40;;
48685;SDS011;34485;51.536;3.816;2023-07-30T11:06:07;6.10;;;2.30;;
48685;SDS011;34485;51.536;3.816;2023-07-30T11:08:39;3.75;;;1.65;;
48685;SDS011;34485;51.536;3.816;2023-07-30T11:11:07;7.30;;;2.00;;
48685;SDS011;34485;51.536;3.816;2023-07-30T11:13:41;3.13;;;1.95;;
48685;SDS011;34485;51.536;3.816;2023-07-30T11:16:09;4.23;;;2.20;;
48685;SDS011;34485;51.536;3.816;2023-07-30T11:18:36;4.10;;;1.95;;
48685;SDS011;34485;51.536;3.816;2023-07-30T11:21:03;5.70;;;1.95;;
48685;SDS011;34485;51.536;3.816;2023-07-30T11:23:32;5.90;;;2.13;;
48685;SDS011;34485;51.536;3.816;2023-07-30T11:26:00;4.10;;;2.10;;
48685;SDS011;34485;51.536;3.816;2023-07-30T11:28:30;6.13;;;2.00;;
48685;SDS011;34485;51.536;3.816;2023-07-30T11:31:01;7.18;;;2.38;;
48685;SDS011;34485;51.536;3.816;2023-07-30T11:33:31;5.43;;;2.00;;
48685;SDS011;34485;51.536;3.816;2023-07-30T11:35:57;7.53;;;2.40;;
48685;SDS011;34485;51.536;3.816;2023-07-30T11:38:25;5.40;;;2.35;;
48685;SDS011;34485;51.536;3.816;2023-07-30T11:40:52;7.43;;;1.83;;
48685;SDS011;34485;51.536;3.816;2023-07-30T11:43:19;4.80;;;2.10;;
48685;SDS011;34485;51.536;3.816;2023-07-30T11:45:46;5.68;;;2.35;;
48685;SDS011;34485;51.536;3.816;2023-07-30T11:48:12;5.43;;;2.37;;
48685;SDS011;34485;51.536;3.816;2023-07-30T11:50:44;3.77;;;2.23;;
48685;SDS011;34485;51.536;3.816;2023-07-30T11:53:15;6.93;;;2.10;;
48685;SDS011;34485;51.536;3.816;2023-07-30T11:55:42;6.22;;;2.10;;
48685;SDS011;34485;51.536;3.816;2023-07-30T11:58:09;5.70;;;2.00;;
48685;SDS011;34485;51.536;3.816;2023-07-30T12:00:39;4.82;;;2.35;;
48685;SDS011;34485;51.536;3.816;2023-07-30T12:03:06;2.70;;;2.20;;
48685;SDS011;34485;51.536;3.816;2023-07-30T12:05:35;6.65;;;2.55;;
48685;SDS011;34485;51.536;3.816;2023-07-30T12:08:02;9.40;;;2.22;;
48685;SDS011;34485;51.536;3.816;2023-07-30T12:10:47;3.57;;;1.97;;
48685;SDS011;34485;51.536;3.816;2023-07-30T12:13:18;7.40;;;1.98;;
48685;SDS011;34485;51.536;3.816;2023-07-30T12:15:54;6.65;;;2.28;;
48685;SDS011;34485;51.536;3.816;2023-07-30T12:18:21;6.97;;;2.45;;
48685;SDS011;34485;51.536;3.816;2023-07-30T12:20:49;10.35;;;2.13;;
48685;SDS011;34485;51.536;3.816;2023-07-30T12:23:18;7.33;;;1.80;;
48685;SDS011;34485;51.536;3.816;2023-07-30T12:25:45;7.65;;;2.10;;
48685;SDS011;34485;51.536;3.816;2023-07-30T12:28:11;11.40;;;1.90;;
48685;SDS011;34485;51.536;3.816;2023-07-30T12:30:37;8.73;;;2.28;;
48685;SDS011;34485;51.536;3.816;2023-07-30T12:33:03;3.92;;;1.75;;
48685;SDS011;34485;51.536;3.816;2023-07-30T12:35:30;5.80;;;2.73;;
48685;SDS011;34485;51.536;3.816;2023-07-30T12:37:56;7.20;;;2.17;;
48685;SDS011;34485;51.536;3.816;2023-07-30T12:40:22;7.18;;;2.00;;
48685;SDS011;34485;51.536;3.816;2023-07-30T12:42:47;7.33;;;2.77;;
48685;SDS011;34485;51.536;3.816;2023-07-30T12:45:13;9.25;;;2.53;;
48685;SDS011;34485;51.536;3.816;2023-07-30T12:47:39;8.87;;;2.60;;
48685;SDS011;34485;51.536;3.816;2023-07-30T12:50:05;12.82;;;2.65;;
48685;SDS011;34485;51.536;3.816;2023-07-30T12:52:32;11.20;;;2.30;;
48685;SDS011;34485;51.536;3.816;2023-07-30T12:54:58;7.47;;;2.47;;
48685;SDS011;34485;51.536;3.816;2023-07-30T12:57:24;17.17;;;2.43;;
48685;SDS011;34485;51.536;3.816;2023-07-30T12:59:49;8.48;;;2.63;;
48685;SDS011;34485;51.536;3.816;2023-07-30T13:02:15;12.27;;;3.07;;
48685;SDS011;34485;51.536;3.816;2023-07-30T13:04:40;6.22;;;2.13;;
48685;SDS011;34485;51.536;3.816;2023-07-30T13:07:06;8.97;;;2.97;;
48685;SDS011;34485;51.536;3.816;2023-07-30T13:09:32;8.43;;;2.37;;
48685;SDS011;34485;51.536;3.816;2023-07-30T13:11:57;4.97;;;2.50;;
48685;SDS011;34485;51.536;3.816;2023-07-30T13:14:23;8.48;;;2.47;;
48685;SDS011;34485;51.536;3.816;2023-07-30T13:16:49;15.27;;;3.07;;
48685;SDS011;34485;51.536;3.816;2023-07-30T13:19:14;12.77;;;2.90;;
48685;SDS011;34485;51.536;3.816;2023-07-30T13:21:40;8.30;;;2.50;;
48685;SDS011;34485;51.536;3.816;2023-07-30T13:24:05;8.87;;;2.80;;
48685;SDS011;34485;51.536;3.816;2023-07-30T13:26:31;8.80;;;3.35;;
48685;SDS011;34485;51.536;3.816;2023-07-30T13:28:57;8.07;;;2.27;;
48685;SDS011;34485;51.536;3.816;2023-07-30T13:31:22;14.23;;;2.60;;
48685;SDS011;34485;51.536;3.816;2023-07-30T13:33:48;8.30;;;2.83;;
48685;SDS011;34485;51.536;3.816;2023-07-30T13:36:14;11.15;;;2.97;;
48685;SDS011;34485;51.536;3.816;2023-07-30T13:38:39;11.63;;;2.83;;
48685;SDS011;34485;51.536;3.816;2023-07-30T13:41:05;11.13;;;2.45;;
48685;SDS011;34485;51.536;3.816;2023-07-30T13:43:32;11.93;;;3.20;;
48685;SDS011;34485;51.536;3.816;2023-07-30T13:45:57;9.27;;;2.77;;
48685;SDS011;34485;51.536;3.816;2023-07-30T13:48:23;14.05;;;2.75;;
48685;SDS011;34485;51.536;3.816;2023-07-30T13:50:50;9.38;;;2.95;;
48685;SDS011;34485;51.536;3.816;2023-07-30T13:53:15;9.77;;;3.70;;
48685;SDS011;34485;51.536;3.816;2023-07-30T13:55:41;14.15;;;3.50;;
48685;SDS011;34485;51.536;3.816;2023-07-30T13:58:08;10.40;;;2.83;;
48685;SDS011;34485;51.536;3.816;2023-07-30T14:00:34;8.13;;;3.03;;
48685;SDS011;34485;51.536;3.816;2023-07-30T14:02:59;11.30;;;2.67;;
48685;SDS011;34485;51.536;3.816;2023-07-30T14:05:25;12.07;;;3.38;;
48685;SDS011;34485;51.536;3.816;2023-07-30T14:07:53;10.02;;;3.35;;
48685;SDS011;34485;51.536;3.816;2023-07-30T14:10:21;9.63;;;3.30;;
48685;SDS011;34485;51.536;3.816;2023-07-30T14:12:47;14.23;;;3.88;;
48685;SDS011;34485;51.536;3.816;2023-07-30T14:15:13;13.82;;;3.33;;
48685;SDS011;34485;51.536;3.816;2023-07-30T14:17:39;10.70;;;3.65;;
48685;SDS011;34485;51.536;3.816;2023-07-30T14:20:05;13.47;;;3.00;;
48685;SDS011;34485;51.536;3.816;2023-07-30T14:22:32;19.52;;;3.20;;
48685;SDS011;34485;51.536;3.816;2023-07-30T14:24:58;10.63;;;2.63;;
48685;SDS011;34485;51.536;3.816;2023-07-30T14:27:24;6.97;;;2.70;;
48685;SDS011;34485;51.536;3.816;2023-07-30T14:29:50;7.20;;;2.65;;
48685;SDS011;34485;51.536;3.816;2023-07-30T14:32:17;11.63;;;3.60;;
48685;SDS011;34485;51.536;3.816;2023-07-30T14:34:44;13.05;;;3.15;;
48685;SDS011;34485;51.536;3.816;2023-07-30T14:37:10;10.40;;;3.13;;
48685;SDS011;34485;51.536;3.816;2023-07-30T14:39:35;14.80;;;4.00;;
48685;SDS011;34485;51.536;3.816;2023-07-30T14:42:01;10.60;;;3.70;;